Azteca — V7CH4 — position and weather

sailwx.info

Track history (hours):
 
Tides and Currents Weather Stations Pressure Air Temp Water Temp Dewpoint Dewpoint Depression Visibility Wind Speed Wind Dir Waves Ship Positions

Azteca

Last reported at 2017-Nov-07 07:31 UTC. Time now 2017-Nov-20 00:29 UTC.
Position N 37°29' E 025°56'.
Warning: this ship's position is 12 days out of date.

Length 180 m; draft 10.4 m.

Type: Cargo ship. MMSI: 538005259.

Date/timePositionNaut miles runAvg speedWind from/ knotsBaromVisibWave heightAir tempDewpointWater temp
2017-Nov-07 07:31N 37°29' E 025°56'012.9
2017-Nov-07 07:30N 37°29' E 025°55'713.3
2017-Nov-07 07:00N 37°35' E 025°51'713.5
2017-Nov-07 06:30N 37°41' E 025°47'713.2
2017-Nov-07 06:00N 37°46' E 025°43'241 7.2
2017-Nov-05 20:42N 40°57' E 028°54'33010.2
2017-Nov-04 12:27N 46°14' E 030°56'912.1
2017-Nov-04 11:43N 46°23' E 030°55'312.6
2017-Nov-04 11:29N 46°26' E 030°55'611.9
2017-Nov-04 11:01N 46°32' E 030°55'4 8.2
2017-Nov-04 10:29N 46°34' E 031°00'  
Track history (hours):
 
Tides and Currents Weather Stations Pressure Air Temp Water Temp Dewpoint Dewpoint Depression Visibility Wind Speed Wind Dir Waves Ship Positions

Azteca

Last reported at 2017-Nov-07 07:31 UTC. Time now 2017-Nov-20 00:29 UTC.
Position N 37°29' E 025°56'.
Warning: this ship's position is 12 days out of date.

Length 180 m; draft 10.4 m.

Type: Cargo ship. MMSI: 538005259.

Date/timePositionNaut miles runAvg speedWind from/ knotsBaromVisibWave heightAir tempDewpointWater temp
2017-Nov-07 07:31N 37°29' E 025°56'012.9
2017-Nov-07 07:30N 37°29' E 025°55'713.3
2017-Nov-07 07:00N 37°35' E 025°51'713.5
2017-Nov-07 06:30N 37°41' E 025°47'713.2
2017-Nov-07 06:00N 37°46' E 025°43'241 7.2
2017-Nov-05 20:42N 40°57' E 028°54'33010.2
2017-Nov-04 12:27N 46°14' E 030°56'912.1
2017-Nov-04 11:43N 46°23' E 030°55'312.6
2017-Nov-04 11:29N 46°26' E 030°55'611.9
2017-Nov-04 11:01N 46°32' E 030°55'4 8.2
2017-Nov-04 10:29N 46°34' E 031°00'  

Dump ship's entire track history